sensor_id;sensor_type;location;lat;lon;timestamp;P1;durP1;ratioP1;P2;durP2;ratioP2
20067;SDS011;10194;50.824;7.134;2023-12-22T00:02:09;55.07;;;46.33;;
20067;SDS011;10194;50.824;7.134;2023-12-22T00:04:34;52.90;;;45.37;;
20067;SDS011;10194;50.824;7.134;2023-12-22T00:07:00;52.30;;;44.90;;
20067;SDS011;10194;50.824;7.134;2023-12-22T00:09:26;52.00;;;44.80;;
20067;SDS011;10194;50.824;7.134;2023-12-22T00:11:51;52.13;;;44.90;;
20067;SDS011;10194;50.824;7.134;2023-12-22T00:14:17;51.90;;;45.03;;
20067;SDS011;10194;50.824;7.134;2023-12-22T00:16:43;51.73;;;44.80;;
20067;SDS011;10194;50.824;7.134;2023-12-22T00:19:09;52.10;;;45.23;;
20067;SDS011;10194;50.824;7.134;2023-12-22T00:21:35;52.63;;;46.00;;
20067;SDS011;10194;50.824;7.134;2023-12-22T00:24:00;51.90;;;45.10;;
20067;SDS011;10194;50.824;7.134;2023-12-22T00:26:26;53.03;;;45.77;;
20067;SDS011;10194;50.824;7.134;2023-12-22T00:28:52;52.87;;;45.70;;
20067;SDS011;10194;50.824;7.134;2023-12-22T00:31:17;52.30;;;45.63;;
20067;SDS011;10194;50.824;7.134;2023-12-22T00:33:43;52.00;;;45.70;;
20067;SDS011;10194;50.824;7.134;2023-12-22T00:36:09;52.23;;;45.70;;
20067;SDS011;10194;50.824;7.134;2023-12-22T00:38:43;52.53;;;46.07;;
20067;SDS011;10194;50.824;7.134;2023-12-22T00:41:13;52.57;;;46.13;;
20067;SDS011;10194;50.824;7.134;2023-12-22T00:43:40;52.53;;;46.00;;
20067;SDS011;10194;50.824;7.134;2023-12-22T00:46:07;53.10;;;46.40;;
20067;SDS011;10194;50.824;7.134;2023-12-22T00:48:33;53.40;;;46.20;;
20067;SDS011;10194;50.824;7.134;2023-12-22T00:51:08;53.20;;;46.30;;
20067;SDS011;10194;50.824;7.134;2023-12-22T00:53:34;53.40;;;45.83;;
20067;SDS011;10194;50.824;7.134;2023-12-22T00:56:00;52.93;;;45.47;;
20067;SDS011;10194;50.824;7.134;2023-12-22T00:58:28;53.03;;;45.53;;
20067;SDS011;10194;50.824;7.134;2023-12-22T01:00:56;53.10;;;45.43;;
20067;SDS011;10194;50.824;7.134;2023-12-22T01:03:22;55.30;;;46.20;;
20067;SDS011;10194;50.824;7.134;2023-12-22T01:05:48;55.03;;;46.47;;
20067;SDS011;10194;50.824;7.134;2023-12-22T01:08:14;53.17;;;45.37;;
20067;SDS011;10194;50.824;7.134;2023-12-22T01:10:41;53.47;;;45.43;;
20067;SDS011;10194;50.824;7.134;2023-12-22T01:13:07;53.73;;;45.67;;
20067;SDS011;10194;50.824;7.134;2023-12-22T01:15:33;54.70;;;45.93;;
20067;SDS011;10194;50.824;7.134;2023-12-22T01:17:59;53.40;;;45.53;;
20067;SDS011;10194;50.824;7.134;2023-12-22T01:20:25;53.07;;;45.27;;
20067;SDS011;10194;50.824;7.134;2023-12-22T01:22:51;53.27;;;45.43;;
20067;SDS011;10194;50.824;7.134;2023-12-22T01:25:16;53.23;;;45.53;;
20067;SDS011;10194;50.824;7.134;2023-12-22T01:27:42;54.00;;;45.77;;
20067;SDS011;10194;50.824;7.134;2023-12-22T01:30:08;53.60;;;45.53;;
20067;SDS011;10194;50.824;7.134;2023-12-22T01:32:34;53.43;;;45.37;;
20067;SDS011;10194;50.824;7.134;2023-12-22T01:35:01;53.40;;;45.40;;
20067;SDS011;10194;50.824;7.134;2023-12-22T01:37:31;53.87;;;45.70;;
20067;SDS011;10194;50.824;7.134;2023-12-22T01:39:57;53.63;;;45.43;;
20067;SDS011;10194;50.824;7.134;2023-12-22T01:42:23;53.60;;;45.50;;
20067;SDS011;10194;50.824;7.134;2023-12-22T01:44:49;53.80;;;45.70;;
20067;SDS011;10194;50.824;7.134;2023-12-22T01:47:14;54.00;;;45.70;;
20067;SDS011;10194;50.824;7.134;2023-12-22T01:49:40;54.43;;;46.03;;
20067;SDS011;10194;50.824;7.134;2023-12-22T01:52:06;53.53;;;45.50;;
20067;SDS011;10194;50.824;7.134;2023-12-22T01:54:32;54.43;;;45.80;;
20067;SDS011;10194;50.824;7.134;2023-12-22T01:56:59;53.70;;;45.50;;
20067;SDS011;10194;50.824;7.134;2023-12-22T01:59:26;53.60;;;45.50;;
20067;SDS011;10194;50.824;7.134;2023-12-22T02:01:52;53.20;;;45.30;;
20067;SDS011;10194;50.824;7.134;2023-12-22T02:04:18;53.87;;;45.50;;
20067;SDS011;10194;50.824;7.134;2023-12-22T02:06:45;56.80;;;47.10;;
20067;SDS011;10194;50.824;7.134;2023-12-22T02:09:11;54.10;;;45.77;;
20067;SDS011;10194;50.824;7.134;2023-12-22T02:11:37;54.03;;;45.73;;
20067;SDS011;10194;50.824;7.134;2023-12-22T02:14:03;53.60;;;45.50;;
20067;SDS011;10194;50.824;7.134;2023-12-22T02:19:15;53.73;;;45.40;;
20067;SDS011;10194;50.824;7.134;2023-12-22T02:22:07;53.33;;;45.30;;
20067;SDS011;10194;50.824;7.134;2023-12-22T02:24:35;53.70;;;45.53;;
20067;SDS011;10194;50.824;7.134;2023-12-22T02:29:32;54.20;;;46.00;;
20067;SDS011;10194;50.824;7.134;2023-12-22T02:32:05;54.10;;;45.90;;
20067;SDS011;10194;50.824;7.134;2023-12-22T02:34:35;53.60;;;45.30;;
20067;SDS011;10194;50.824;7.134;2023-12-22T02:37:04;53.47;;;45.40;;
20067;SDS011;10194;50.824;7.134;2023-12-22T02:39:33;53.33;;;45.30;;
20067;SDS011;10194;50.824;7.134;2023-12-22T02:42:00;53.50;;;45.40;;
20067;SDS011;10194;50.824;7.134;2023-12-22T02:44:26;52.90;;;45.00;;
20067;SDS011;10194;50.824;7.134;2023-12-22T02:46:53;53.80;;;45.50;;
20067;SDS011;10194;50.824;7.134;2023-12-22T02:49:18;53.60;;;45.67;;
20067;SDS011;10194;50.824;7.134;2023-12-22T02:51:44;53.90;;;45.67;;
20067;SDS011;10194;50.824;7.134;2023-12-22T02:54:10;53.40;;;45.43;;
20067;SDS011;10194;50.824;7.134;2023-12-22T02:56:36;54.13;;;45.80;;
20067;SDS011;10194;50.824;7.134;2023-12-22T02:59:02;53.20;;;45.23;;
20067;SDS011;10194;50.824;7.134;2023-12-22T03:01:27;53.60;;;45.50;;
20067;SDS011;10194;50.824;7.134;2023-12-22T03:03:53;53.20;;;45.40;;
20067;SDS011;10194;50.824;7.134;2023-12-22T03:06:19;53.27;;;45.50;;
20067;SDS011;10194;50.824;7.134;2023-12-22T03:08:44;53.80;;;45.70;;
20067;SDS011;10194;50.824;7.134;2023-12-22T03:11:10;53.83;;;45.60;;
20067;SDS011;10194;50.824;7.134;2023-12-22T03:13:36;53.40;;;45.60;;
20067;SDS011;10194;50.824;7.134;2023-12-22T03:16:02;53.53;;;45.30;;
20067;SDS011;10194;50.824;7.134;2023-12-22T03:18:28;53.67;;;45.43;;
20067;SDS011;10194;50.824;7.134;2023-12-22T03:20:53;54.47;;;46.00;;
20067;SDS011;10194;50.824;7.134;2023-12-22T03:23:19;53.60;;;45.50;;
20067;SDS011;10194;50.824;7.134;2023-12-22T03:25:45;56.43;;;46.90;;
20067;SDS011;10194;50.824;7.134;2023-12-22T03:28:10;53.33;;;45.50;;
20067;SDS011;10194;50.824;7.134;2023-12-22T03:30:36;53.40;;;45.33;;
20067;SDS011;10194;50.824;7.134;2023-12-22T03:33:03;54.70;;;46.27;;
20067;SDS011;10194;50.824;7.134;2023-12-22T03:35:28;53.97;;;45.80;;
20067;SDS011;10194;50.824;7.134;2023-12-22T03:37:54;56.10;;;46.63;;
20067;SDS011;10194;50.824;7.134;2023-12-22T03:40:20;54.27;;;45.97;;
20067;SDS011;10194;50.824;7.134;2023-12-22T03:42:46;54.40;;;45.87;;
20067;SDS011;10194;50.824;7.134;2023-12-22T03:45:11;55.10;;;46.27;;
20067;SDS011;10194;50.824;7.134;2023-12-22T03:47:37;55.23;;;46.40;;
20067;SDS011;10194;50.824;7.134;2023-12-22T03:50:03;54.50;;;46.00;;
20067;SDS011;10194;50.824;7.134;2023-12-22T03:52:29;54.00;;;45.80;;
20067;SDS011;10194;50.824;7.134;2023-12-22T03:54:55;54.67;;;46.20;;
20067;SDS011;10194;50.824;7.134;2023-12-22T03:57:21;54.63;;;46.23;;
20067;SDS011;10194;50.824;7.134;2023-12-22T03:59:46;54.80;;;46.20;;
20067;SDS011;10194;50.824;7.134;2023-12-22T04:02:12;54.40;;;46.10;;
20067;SDS011;10194;50.824;7.134;2023-12-22T04:04:38;54.00;;;45.87;;
20067;SDS011;10194;50.824;7.134;2023-12-22T04:07:04;55.13;;;46.47;;
20067;SDS011;10194;50.824;7.134;2023-12-22T04:09:30;54.27;;;46.00;;
20067;SDS011;10194;50.824;7.134;2023-12-22T04:11:55;54.40;;;46.17;;
20067;SDS011;10194;50.824;7.134;2023-12-22T04:14:21;54.20;;;45.90;;
20067;SDS011;10194;50.824;7.134;2023-12-22T04:16:47;54.40;;;46.03;;
20067;SDS011;10194;50.824;7.134;2023-12-22T04:19:13;54.40;;;46.03;;
20067;SDS011;10194;50.824;7.134;2023-12-22T04:21:39;54.80;;;46.33;;
20067;SDS011;10194;50.824;7.134;2023-12-22T04:24:05;54.50;;;46.00;;
20067;SDS011;10194;50.824;7.134;2023-12-22T04:26:31;55.23;;;46.30;;
20067;SDS011;10194;50.824;7.134;2023-12-22T04:28:56;54.20;;;46.00;;
20067;SDS011;10194;50.824;7.134;2023-12-22T04:31:22;54.20;;;46.00;;
20067;SDS011;10194;50.824;7.134;2023-12-22T04:33:48;54.83;;;46.30;;
20067;SDS011;10194;50.824;7.134;2023-12-22T04:36:14;54.57;;;46.13;;
20067;SDS011;10194;50.824;7.134;2023-12-22T04:38:39;54.40;;;46.13;;
20067;SDS011;10194;50.824;7.134;2023-12-22T04:41:06;56.33;;;47.00;;
20067;SDS011;10194;50.824;7.134;2023-12-22T04:43:31;54.30;;;46.10;;
20067;SDS011;10194;50.824;7.134;2023-12-22T04:45:57;55.03;;;46.67;;
20067;SDS011;10194;50.824;7.134;2023-12-22T04:48:23;54.27;;;46.00;;
20067;SDS011;10194;50.824;7.134;2023-12-22T04:50:49;55.17;;;46.47;;
20067;SDS011;10194;50.824;7.134;2023-12-22T04:53:14;54.97;;;46.40;;
20067;SDS011;10194;50.824;7.134;2023-12-22T04:55:40;57.20;;;47.70;;
20067;SDS011;10194;50.824;7.134;2023-12-22T04:58:06;54.83;;;46.37;;
20067;SDS011;10194;50.824;7.134;2023-12-22T05:00:32;54.97;;;46.43;;
20067;SDS011;10194;50.824;7.134;2023-12-22T05:02:57;54.40;;;46.00;;
20067;SDS011;10194;50.824;7.134;2023-12-22T05:05:23;54.37;;;46.20;;
20067;SDS011;10194;50.824;7.134;2023-12-22T05:07:49;54.50;;;46.20;;
20067;SDS011;10194;50.824;7.134;2023-12-22T05:10:15;54.50;;;46.30;;
20067;SDS011;10194;50.824;7.134;2023-12-22T05:12:40;54.27;;;46.13;;
20067;SDS011;10194;50.824;7.134;2023-12-22T05:15:06;56.80;;;47.40;;
20067;SDS011;10194;50.824;7.134;2023-12-22T05:17:32;54.20;;;45.90;;
20067;SDS011;10194;50.824;7.134;2023-12-22T05:19:58;54.83;;;46.43;;
20067;SDS011;10194;50.824;7.134;2023-12-22T05:22:24;55.00;;;46.67;;
20067;SDS011;10194;50.824;7.134;2023-12-22T05:24:49;54.90;;;46.40;;
20067;SDS011;10194;50.824;7.134;2023-12-22T05:27:15;55.33;;;46.63;;
20067;SDS011;10194;50.824;7.134;2023-12-22T05:29:41;55.13;;;46.47;;
20067;SDS011;10194;50.824;7.134;2023-12-22T05:32:07;54.53;;;46.20;;
20067;SDS011;10194;50.824;7.134;2023-12-22T05:34:32;54.63;;;46.17;;
20067;SDS011;10194;50.824;7.134;2023-12-22T05:36:58;56.27;;;47.20;;
20067;SDS011;10194;50.824;7.134;2023-12-22T05:39:24;55.67;;;46.90;;
20067;SDS011;10194;50.824;7.134;2023-12-22T05:41:50;55.03;;;46.40;;
20067;SDS011;10194;50.824;7.134;2023-12-22T05:44:15;54.53;;;46.30;;
20067;SDS011;10194;50.824;7.134;2023-12-22T05:46:41;54.80;;;46.47;;
20067;SDS011;10194;50.824;7.134;2023-12-22T05:49:07;54.60;;;46.30;;
20067;SDS011;10194;50.824;7.134;2023-12-22T05:51:38;55.07;;;46.63;;
20067;SDS011;10194;50.824;7.134;2023-12-22T05:54:08;55.07;;;46.50;;
20067;SDS011;10194;50.824;7.134;2023-12-22T05:56:35;61.77;;;48.97;;
20067;SDS011;10194;50.824;7.134;2023-12-22T05:59:00;54.80;;;46.50;;
20067;SDS011;10194;50.824;7.134;2023-12-22T06:01:26;54.80;;;46.53;;
20067;SDS011;10194;50.824;7.134;2023-12-22T06:03:52;54.80;;;46.40;;
20067;SDS011;10194;50.824;7.134;2023-12-22T06:06:18;55.43;;;46.87;;
20067;SDS011;10194;50.824;7.134;2023-12-22T06:08:44;55.20;;;46.77;;
20067;SDS011;10194;50.824;7.134;2023-12-22T06:11:10;55.07;;;46.60;;
20067;SDS011;10194;50.824;7.134;2023-12-22T06:13:36;54.87;;;46.40;;
20067;SDS011;10194;50.824;7.134;2023-12-22T06:16:02;55.93;;;46.93;;
20067;SDS011;10194;50.824;7.134;2023-12-22T06:18:30;55.10;;;46.53;;
20067;SDS011;10194;50.824;7.134;2023-12-22T06:20:55;55.77;;;47.03;;
20067;SDS011;10194;50.824;7.134;2023-12-22T06:23:21;55.03;;;46.63;;
20067;SDS011;10194;50.824;7.134;2023-12-22T06:25:47;57.70;;;47.93;;
20067;SDS011;10194;50.824;7.134;2023-12-22T06:28:13;55.83;;;46.83;;
20067;SDS011;10194;50.824;7.134;2023-12-22T06:30:41;55.10;;;46.53;;
20067;SDS011;10194;50.824;7.134;2023-12-22T06:33:08;55.40;;;46.80;;
20067;SDS011;10194;50.824;7.134;2023-12-22T06:35:34;57.80;;;47.90;;
20067;SDS011;10194;50.824;7.134;2023-12-22T06:38:00;55.40;;;46.73;;
20067;SDS011;10194;50.824;7.134;2023-12-22T06:40:28;55.40;;;46.57;;
20067;SDS011;10194;50.824;7.134;2023-12-22T06:42:54;54.90;;;46.50;;
20067;SDS011;10194;50.824;7.134;2023-12-22T06:45:20;55.87;;;46.97;;
20067;SDS011;10194;50.824;7.134;2023-12-22T06:47:46;56.23;;;47.20;;
20067;SDS011;10194;50.824;7.134;2023-12-22T06:50:12;55.30;;;46.77;;
20067;SDS011;10194;50.824;7.134;2023-12-22T06:52:37;55.43;;;46.77;;
20067;SDS011;10194;50.824;7.134;2023-12-22T06:55:03;55.40;;;46.70;;
20067;SDS011;10194;50.824;7.134;2023-12-22T06:57:29;56.27;;;47.17;;
20067;SDS011;10194;50.824;7.134;2023-12-22T06:59:55;56.77;;;47.20;;
20067;SDS011;10194;50.824;7.134;2023-12-22T07:02:21;56.00;;;47.00;;
20067;SDS011;10194;50.824;7.134;2023-12-22T07:07:35;55.40;;;46.80;;
20067;SDS011;10194;50.824;7.134;2023-12-22T07:10:01;55.00;;;46.43;;
20067;SDS011;10194;50.824;7.134;2023-12-22T07:12:27;54.73;;;46.30;;
20067;SDS011;10194;50.824;7.134;2023-12-22T07:14:53;54.07;;;46.20;;
20067;SDS011;10194;50.824;7.134;2023-12-22T07:17:19;54.67;;;46.33;;
20067;SDS011;10194;50.824;7.134;2023-12-22T07:19:45;54.07;;;45.90;;
20067;SDS011;10194;50.824;7.134;2023-12-22T07:22:10;54.07;;;45.97;;
20067;SDS011;10194;50.824;7.134;2023-12-22T07:24:36;55.27;;;46.47;;
20067;SDS011;10194;50.824;7.134;2023-12-22T07:27:02;54.17;;;45.90;;
20067;SDS011;10194;50.824;7.134;2023-12-22T07:29:29;54.30;;;46.00;;
20067;SDS011;10194;50.824;7.134;2023-12-22T07:31:54;54.47;;;45.97;;
20067;SDS011;10194;50.824;7.134;2023-12-22T07:34:20;54.30;;;45.90;;
20067;SDS011;10194;50.824;7.134;2023-12-22T07:36:47;54.33;;;46.10;;
20067;SDS011;10194;50.824;7.134;2023-12-22T07:39:19;54.47;;;46.10;;
20067;SDS011;10194;50.824;7.134;2023-12-22T07:41:56;55.87;;;46.80;;
20067;SDS011;10194;50.824;7.134;2023-12-22T07:44:28;54.00;;;45.80;;
20067;SDS011;10194;50.824;7.134;2023-12-22T07:47:00;54.33;;;46.07;;
20067;SDS011;10194;50.824;7.134;2023-12-22T07:49:26;55.07;;;46.30;;
20067;SDS011;10194;50.824;7.134;2023-12-22T07:51:52;54.00;;;45.77;;
20067;SDS011;10194;50.824;7.134;2023-12-22T07:54:18;55.43;;;46.53;;
20067;SDS011;10194;50.824;7.134;2023-12-22T07:56:44;56.20;;;47.03;;
20067;SDS011;10194;50.824;7.134;2023-12-22T07:59:10;54.67;;;46.27;;
20067;SDS011;10194;50.824;7.134;2023-12-22T08:01:36;54.93;;;46.33;;
20067;SDS011;10194;50.824;7.134;2023-12-22T08:04:01;54.83;;;46.33;;
20067;SDS011;10194;50.824;7.134;2023-12-22T08:06:27;57.67;;;47.27;;
20067;SDS011;10194;50.824;7.134;2023-12-22T08:08:53;54.77;;;46.13;;
20067;SDS011;10194;50.824;7.134;2023-12-22T08:11:20;55.10;;;46.57;;
20067;SDS011;10194;50.824;7.134;2023-12-22T08:13:50;54.87;;;46.33;;
20067;SDS011;10194;50.824;7.134;2023-12-22T08:16:16;55.03;;;46.37;;
20067;SDS011;10194;50.824;7.134;2023-12-22T08:18:41;59.20;;;47.90;;
20067;SDS011;10194;50.824;7.134;2023-12-22T08:21:07;55.03;;;46.60;;
20067;SDS011;10194;50.824;7.134;2023-12-22T08:23:33;56.20;;;46.97;;
20067;SDS011;10194;50.824;7.134;2023-12-22T08:25:59;57.10;;;47.23;;
20067;SDS011;10194;50.824;7.134;2023-12-22T08:28:25;57.90;;;47.87;;
20067;SDS011;10194;50.824;7.134;2023-12-22T08:30:51;57.37;;;47.43;;
20067;SDS011;10194;50.824;7.134;2023-12-22T08:33:17;56.27;;;47.03;;
20067;SDS011;10194;50.824;7.134;2023-12-22T08:35:43;59.77;;;48.77;;
20067;SDS011;10194;50.824;7.134;2023-12-22T08:38:09;55.60;;;46.70;;
20067;SDS011;10194;50.824;7.134;2023-12-22T08:40:35;56.60;;;47.07;;
20067;SDS011;10194;50.824;7.134;2023-12-22T08:43:01;54.97;;;46.50;;
20067;SDS011;10194;50.824;7.134;2023-12-22T08:45:27;55.67;;;46.83;;
20067;SDS011;10194;50.824;7.134;2023-12-22T08:47:54;55.30;;;46.60;;
20067;SDS011;10194;50.824;7.134;2023-12-22T08:50:21;55.10;;;46.50;;
20067;SDS011;10194;50.824;7.134;2023-12-22T08:52:46;55.67;;;46.77;;
20067;SDS011;10194;50.824;7.134;2023-12-22T08:55:12;56.70;;;47.23;;
20067;SDS011;10194;50.824;7.134;2023-12-22T08:57:39;56.17;;;47.03;;
20067;SDS011;10194;50.824;7.134;2023-12-22T09:00:05;55.67;;;46.80;;
20067;SDS011;10194;50.824;7.134;2023-12-22T09:02:31;55.57;;;46.70;;
20067;SDS011;10194;50.824;7.134;2023-12-22T09:04:57;56.37;;;47.07;;
20067;SDS011;10194;50.824;7.134;2023-12-22T09:07:23;56.33;;;47.23;;
20067;SDS011;10194;50.824;7.134;2023-12-22T09:09:49;55.97;;;47.10;;
20067;SDS011;10194;50.824;7.134;2023-12-22T09:12:15;56.00;;;47.00;;
20067;SDS011;10194;50.824;7.134;2023-12-22T09:14:41;56.30;;;47.07;;
20067;SDS011;10194;50.824;7.134;2023-12-22T09:17:07;55.67;;;46.87;;
20067;SDS011;10194;50.824;7.134;2023-12-22T09:19:33;55.87;;;46.90;;
20067;SDS011;10194;50.824;7.134;2023-12-22T09:21:59;56.43;;;47.23;;
20067;SDS011;10194;50.824;7.134;2023-12-22T09:24:25;56.17;;;47.10;;
20067;SDS011;10194;50.824;7.134;2023-12-22T09:26:50;55.93;;;47.07;;
20067;SDS011;10194;50.824;7.134;2023-12-22T09:29:17;55.50;;;46.87;;
20067;SDS011;10194;50.824;7.134;2023-12-22T09:31:43;56.10;;;47.10;;
20067;SDS011;10194;50.824;7.134;2023-12-22T09:34:08;55.70;;;46.97;;
20067;SDS011;10194;50.824;7.134;2023-12-22T09:36:34;57.47;;;47.57;;
20067;SDS011;10194;50.824;7.134;2023-12-22T09:39:00;57.30;;;47.73;;
20067;SDS011;10194;50.824;7.134;2023-12-22T09:41:26;56.90;;;47.57;;
20067;SDS011;10194;50.824;7.134;2023-12-22T09:43:53;55.97;;;47.10;;
20067;SDS011;10194;50.824;7.134;2023-12-22T09:46:23;57.70;;;47.77;;
20067;SDS011;10194;50.824;7.134;2023-12-22T09:48:51;56.60;;;47.43;;
20067;SDS011;10194;50.824;7.134;2023-12-22T09:51:18;56.87;;;47.57;;
20067;SDS011;10194;50.824;7.134;2023-12-22T09:53:45;57.07;;;47.73;;
20067;SDS011;10194;50.824;7.134;2023-12-22T09:56:12;57.10;;;47.67;;
20067;SDS011;10194;50.824;7.134;2023-12-22T09:58:40;57.23;;;47.60;;
20067;SDS011;10194;50.824;7.134;2023-12-22T10:01:06;57.33;;;47.70;;
20067;SDS011;10194;50.824;7.134;2023-12-22T10:03:34;57.80;;;48.07;;
20067;SDS011;10194;50.824;7.134;2023-12-22T10:06:06;58.43;;;48.07;;
20067;SDS011;10194;50.824;7.134;2023-12-22T10:08:32;57.57;;;48.00;;
20067;SDS011;10194;50.824;7.134;2023-12-22T10:10:58;56.57;;;47.47;;
20067;SDS011;10194;50.824;7.134;2023-12-22T10:13:24;57.27;;;47.80;;
20067;SDS011;10194;50.824;7.134;2023-12-22T10:15:53;58.70;;;48.37;;
20067;SDS011;10194;50.824;7.134;2023-12-22T10:18:20;56.87;;;47.63;;
20067;SDS011;10194;50.824;7.134;2023-12-22T10:20:47;57.13;;;47.83;;
20067;SDS011;10194;50.824;7.134;2023-12-22T10:23:13;56.60;;;47.50;;
20067;SDS011;10194;50.824;7.134;2023-12-22T10:25:40;63.37;;;50.47;;
20067;SDS011;10194;50.824;7.134;2023-12-22T10:28:09;57.53;;;47.97;;
20067;SDS011;10194;50.824;7.134;2023-12-22T10:30:36;57.60;;;48.00;;
20067;SDS011;10194;50.824;7.134;2023-12-22T10:33:03;56.90;;;47.60;;
20067;SDS011;10194;50.824;7.134;2023-12-22T10:35:30;58.03;;;48.03;;
20067;SDS011;10194;50.824;7.134;2023-12-22T10:37:55;58.23;;;48.27;;
20067;SDS011;10194;50.824;7.134;2023-12-22T10:40:23;56.10;;;47.27;;
20067;SDS011;10194;50.824;7.134;2023-12-22T10:42:49;56.20;;;47.27;;
20067;SDS011;10194;50.824;7.134;2023-12-22T10:45:17;57.40;;;47.80;;
20067;SDS011;10194;50.824;7.134;2023-12-22T10:47:44;56.70;;;47.50;;
20067;SDS011;10194;50.824;7.134;2023-12-22T10:50:11;56.83;;;47.63;;
20067;SDS011;10194;50.824;7.134;2023-12-22T10:52:39;56.43;;;47.37;;
20067;SDS011;10194;50.824;7.134;2023-12-22T10:55:05;56.47;;;47.47;;
20067;SDS011;10194;50.824;7.134;2023-12-22T10:57:32;57.20;;;47.77;;
20067;SDS011;10194;50.824;7.134;2023-12-22T11:00:03;56.30;;;47.20;;
20067;SDS011;10194;50.824;7.134;2023-12-22T11:02:35;56.63;;;47.50;;
20067;SDS011;10194;50.824;7.134;2023-12-22T11:05:03;56.90;;;47.43;;
20067;SDS011;10194;50.824;7.134;2023-12-22T11:07:30;56.97;;;47.70;;
20067;SDS011;10194;50.824;7.134;2023-12-22T11:10:06;57.00;;;47.57;;
20067;SDS011;10194;50.824;7.134;2023-12-22T11:12:36;56.47;;;47.23;;
20067;SDS011;10194;50.824;7.134;2023-12-22T11:15:03;56.73;;;47.33;;
20067;SDS011;10194;50.824;7.134;2023-12-22T11:17:34;56.03;;;47.10;;
20067;SDS011;10194;50.824;7.134;2023-12-22T11:20:05;55.87;;;47.03;;
20067;SDS011;10194;50.824;7.134;2023-12-22T11:22:34;56.37;;;47.30;;
20067;SDS011;10194;50.824;7.134;2023-12-22T11:25:02;56.93;;;47.80;;
20067;SDS011;10194;50.824;7.134;2023-12-22T11:27:30;64.70;;;50.80;;
20067;SDS011;10194;50.824;7.134;2023-12-22T11:29:59;57.20;;;47.80;;
20067;SDS011;10194;50.824;7.134;2023-12-22T11:32:33;56.57;;;47.37;;
20067;SDS011;10194;50.824;7.134;2023-12-22T11:35:00;56.87;;;47.63;;
20067;SDS011;10194;50.824;7.134;2023-12-22T11:37:26;56.93;;;47.60;;
20067;SDS011;10194;50.824;7.134;2023-12-22T11:39:55;58.53;;;48.30;;
20067;SDS011;10194;50.824;7.134;2023-12-22T11:42:31;58.73;;;48.30;;
20067;SDS011;10194;50.824;7.134;2023-12-22T11:45:03;56.57;;;47.40;;
20067;SDS011;10194;50.824;7.134;2023-12-22T11:47:30;57.47;;;47.70;;
20067;SDS011;10194;50.824;7.134;2023-12-22T11:49:56;57.33;;;47.83;;
20067;SDS011;10194;50.824;7.134;2023-12-22T11:52:26;56.93;;;47.60;;
20067;SDS011;10194;50.824;7.134;2023-12-22T11:54:55;57.37;;;47.77;;
20067;SDS011;10194;50.824;7.134;2023-12-22T11:59:57;57.40;;;47.90;;
20067;SDS011;10194;50.824;7.134;2023-12-22T12:02:34;57.13;;;47.63;;
20067;SDS011;10194;50.824;7.134;2023-12-22T12:05:02;57.60;;;47.93;;
20067;SDS011;10194;50.824;7.134;2023-12-22T12:13:21;56.73;;;47.50;;
20067;SDS011;10194;50.824;7.134;2023-12-22T12:15:51;59.77;;;49.00;;
20067;SDS011;10194;50.824;7.134;2023-12-22T12:18:21;58.37;;;48.27;;
20067;SDS011;10194;50.824;7.134;2023-12-22T12:20:48;57.53;;;47.77;;
20067;SDS011;10194;50.824;7.134;2023-12-22T12:23:17;56.80;;;47.57;;
20067;SDS011;10194;50.824;7.134;2023-12-22T12:25:43;60.27;;;49.33;;
20067;SDS011;10194;50.824;7.134;2023-12-22T12:28:09;57.17;;;47.70;;
20067;SDS011;10194;50.824;7.134;2023-12-22T12:30:36;57.93;;;48.13;;
20067;SDS011;10194;50.824;7.134;2023-12-22T12:33:10;58.90;;;48.57;;
20067;SDS011;10194;50.824;7.134;2023-12-22T12:35:38;63.70;;;50.73;;
20067;SDS011;10194;50.824;7.134;2023-12-22T12:38:05;57.53;;;48.03;;
20067;SDS011;10194;50.824;7.134;2023-12-22T12:40:32;57.33;;;47.87;;
20067;SDS011;10194;50.824;7.134;2023-12-22T12:43:00;57.53;;;48.10;;
20067;SDS011;10194;50.824;7.134;2023-12-22T12:45:27;57.63;;;48.03;;
20067;SDS011;10194;50.824;7.134;2023-12-22T12:47:56;58.20;;;48.40;;
20067;SDS011;10194;50.824;7.134;2023-12-22T12:50:23;58.20;;;48.37;;
20067;SDS011;10194;50.824;7.134;2023-12-22T12:52:57;65.87;;;51.00;;
20067;SDS011;10194;50.824;7.134;2023-12-22T12:55:37;61.87;;;50.07;;
20067;SDS011;10194;50.824;7.134;2023-12-22T12:58:03;59.13;;;48.90;;
20067;SDS011;10194;50.824;7.134;2023-12-22T13:03:02;58.10;;;48.27;;
20067;SDS011;10194;50.824;7.134;2023-12-22T13:05:30;58.40;;;48.47;;
20067;SDS011;10194;50.824;7.134;2023-12-22T13:08:12;58.03;;;48.20;;
20067;SDS011;10194;50.824;7.134;2023-12-22T13:10:40;57.73;;;48.03;;
20067;SDS011;10194;50.824;7.134;2023-12-22T13:13:07;57.93;;;48.13;;
20067;SDS011;10194;50.824;7.134;2023-12-22T13:15:33;61.80;;;49.83;;
20067;SDS011;10194;50.824;7.134;2023-12-22T13:18:00;57.93;;;48.10;;
20067;SDS011;10194;50.824;7.134;2023-12-22T13:20:27;57.80;;;47.90;;
20067;SDS011;10194;50.824;7.134;2023-12-22T13:22:53;58.77;;;48.57;;
20067;SDS011;10194;50.824;7.134;2023-12-22T13:25:19;57.27;;;47.73;;
20067;SDS011;10194;50.824;7.134;2023-12-22T13:33:03;59.27;;;48.60;;
20067;SDS011;10194;50.824;7.134;2023-12-22T13:35:29;59.53;;;48.87;;
20067;SDS011;10194;50.824;7.134;2023-12-22T13:37:56;57.30;;;47.70;;
20067;SDS011;10194;50.824;7.134;2023-12-22T13:40:22;58.30;;;48.30;;
20067;SDS011;10194;50.824;7.134;2023-12-22T13:42:57;61.90;;;49.90;;
20067;SDS011;10194;50.824;7.134;2023-12-22T13:45:26;58.37;;;48.23;;
20067;SDS011;10194;50.824;7.134;2023-12-22T13:47:53;58.70;;;48.37;;
20067;SDS011;10194;50.824;7.134;2023-12-22T13:50:19;57.70;;;48.03;;
20067;SDS011;10194;50.824;7.134;2023-12-22T13:52:48;57.50;;;47.73;;
20067;SDS011;10194;50.824;7.134;2023-12-22T13:55:18;58.13;;;48.20;;
20067;SDS011;10194;50.824;7.134;2023-12-22T13:57:47;58.60;;;48.37;;
20067;SDS011;10194;50.824;7.134;2023-12-22T14:02:45;57.93;;;48.07;;
20067;SDS011;10194;50.824;7.134;2023-12-22T14:05:14;61.57;;;49.53;;
20067;SDS011;10194;50.824;7.134;2023-12-22T14:07:45;59.13;;;48.83;;
20067;SDS011;10194;50.824;7.134;2023-12-22T14:10:12;58.53;;;48.40;;
20067;SDS011;10194;50.824;7.134;2023-12-22T14:12:39;58.17;;;48.20;;
20067;SDS011;10194;50.824;7.134;2023-12-22T14:15:06;58.40;;;48.33;;
20067;SDS011;10194;50.824;7.134;2023-12-22T14:17:33;58.40;;;48.20;;
20067;SDS011;10194;50.824;7.134;2023-12-22T14:19:59;58.40;;;48.20;;
20067;SDS011;10194;50.824;7.134;2023-12-22T14:22:24;58.70;;;48.47;;
20067;SDS011;10194;50.824;7.134;2023-12-22T14:24:51;58.77;;;48.53;;
20067;SDS011;10194;50.824;7.134;2023-12-22T14:27:17;59.63;;;48.97;;
20067;SDS011;10194;50.824;7.134;2023-12-22T14:29:44;58.97;;;48.43;;
20067;SDS011;10194;50.824;7.134;2023-12-22T14:32:10;58.60;;;48.33;;
20067;SDS011;10194;50.824;7.134;2023-12-22T14:34:37;60.03;;;49.03;;
20067;SDS011;10194;50.824;7.134;2023-12-22T14:37:03;58.00;;;48.20;;
20067;SDS011;10194;50.824;7.134;2023-12-22T14:39:29;58.13;;;48.23;;
20067;SDS011;10194;50.824;7.134;2023-12-22T14:41:56;59.20;;;48.63;;
20067;SDS011;10194;50.824;7.134;2023-12-22T14:44:23;59.87;;;49.00;;
20067;SDS011;10194;50.824;7.134;2023-12-22T14:46:52;59.83;;;49.20;;